sensor_id;sensor_type;location;lat;lon;timestamp;pressure;altitude;pressure_sealevel;temperature;humidity
50734;BME280;36701;51.798;19.474;2022-09-03T00:01:24;99329.38;;;13.04;100.00
50734;BME280;36701;51.798;19.474;2022-09-03T00:04:04;99341.25;;;13.03;100.00
50734;BME280;36701;51.798;19.474;2022-09-03T00:06:44;99329.59;;;12.98;100.00
50734;BME280;36701;51.798;19.474;2022-09-03T00:09:39;99331.50;;;12.97;100.00
50734;BME280;36701;51.798;19.474;2022-09-03T00:12:17;99342.50;;;13.23;100.00
50734;BME280;36701;51.798;19.474;2022-09-03T00:14:52;99324.84;;;13.10;100.00
50734;BME280;36701;51.798;19.474;2022-09-03T00:17:24;99318.31;;;13.06;100.00
50734;BME280;36701;51.798;19.474;2022-09-03T00:20:10;99348.97;;;13.22;100.00
50734;BME280;36701;51.798;19.474;2022-09-03T00:22:42;99339.88;;;13.33;100.00
50734;BME280;36701;51.798;19.474;2022-09-03T00:25:11;99334.88;;;13.15;100.00
50734;BME280;36701;51.798;19.474;2022-09-03T00:27:41;99346.25;;;13.17;100.00
50734;BME280;36701;51.798;19.474;2022-09-03T00:30:13;99303.97;;;12.73;100.00
50734;BME280;36701;51.798;19.474;2022-09-03T00:33:07;99340.16;;;12.99;100.00
50734;BME280;36701;51.798;19.474;2022-09-03T00:38:05;99338.34;;;12.78;100.00
50734;BME280;36701;51.798;19.474;2022-09-03T00:46:16;99340.66;;;12.96;100.00
50734;BME280;36701;51.798;19.474;2022-09-03T00:48:58;99339.53;;;12.92;100.00
50734;BME280;36701;51.798;19.474;2022-09-03T00:51:49;99335.59;;;12.72;100.00
50734;BME280;36701;51.798;19.474;2022-09-03T00:59:56;99339.59;;;12.97;100.00
50734;BME280;36701;51.798;19.474;2022-09-03T01:02:49;99330.50;;;12.49;100.00
50734;BME280;36701;51.798;19.474;2022-09-03T01:08:17;99301.13;;;12.85;100.00
50734;BME280;36701;51.798;19.474;2022-09-03T01:10:56;99337.50;;;13.04;100.00
50734;BME280;36701;51.798;19.474;2022-09-03T01:13:36;99334.12;;;12.92;100.00
50734;BME280;36701;51.798;19.474;2022-09-03T01:16:17;99339.66;;;13.02;100.00
50734;BME280;36701;51.798;19.474;2022-09-03T01:30:39;99325.91;;;12.77;100.00
50734;BME280;36701;51.798;19.474;2022-09-03T01:33:34;99321.53;;;12.70;100.00
50734;BME280;36701;51.798;19.474;2022-09-03T01:36:22;99315.13;;;12.77;100.00
50734;BME280;36701;51.798;19.474;2022-09-03T01:39:02;99235.97;;;12.16;100.00
50734;BME280;36701;51.798;19.474;2022-09-03T01:49:43;99293.19;;;12.18;100.00
50734;BME280;36701;51.798;19.474;2022-09-03T01:58:45;99321.94;;;12.57;100.00
50734;BME280;36701;51.798;19.474;2022-09-03T02:01:21;99283.97;;;12.37;100.00
50734;BME280;36701;51.798;19.474;2022-09-03T02:03:50;99314.22;;;12.39;100.00
50734;BME280;36701;51.798;19.474;2022-09-03T02:06:17;99313.34;;;12.11;100.00
50734;BME280;36701;51.798;19.474;2022-09-03T02:08:45;99318.50;;;12.12;100.00
50734;BME280;36701;51.798;19.474;2022-09-03T02:11:12;99312.44;;;12.00;100.00
50734;BME280;36701;51.798;19.474;2022-09-03T02:13:41;99270.81;;;11.74;100.00
50734;BME280;36701;51.798;19.474;2022-09-03T02:16:34;99309.66;;;12.17;100.00
50734;BME280;36701;51.798;19.474;2022-09-03T02:19:05;99302.38;;;12.17;100.00
50734;BME280;36701;51.798;19.474;2022-09-03T02:21:34;99292.81;;;12.05;100.00
50734;BME280;36701;51.798;19.474;2022-09-03T02:24:03;99269.09;;;11.90;100.00
50734;BME280;36701;51.798;19.474;2022-09-03T02:26:30;99316.25;;;12.04;100.00
50734;BME280;36701;51.798;19.474;2022-09-03T02:28:56;99314.72;;;11.91;100.00
50734;BME280;36701;51.798;19.474;2022-09-03T02:31:23;99316.97;;;11.94;100.00
50734;BME280;36701;51.798;19.474;2022-09-03T02:33:51;99276.09;;;11.63;100.00
50734;BME280;36701;51.798;19.474;2022-09-03T02:36:20;99304.53;;;11.93;100.00
50734;BME280;36701;51.798;19.474;2022-09-03T02:38:51;99314.41;;;12.05;100.00
50734;BME280;36701;51.798;19.474;2022-09-03T02:41:18;99312.47;;;11.83;100.00
50734;BME280;36701;51.798;19.474;2022-09-03T02:43:54;99312.47;;;11.83;100.00
50734;BME280;36701;51.798;19.474;2022-09-03T02:46:31;99312.78;;;11.87;100.00
50734;BME280;36701;51.798;19.474;2022-09-03T02:48:58;99312.97;;;11.80;100.00
50734;BME280;36701;51.798;19.474;2022-09-03T02:51:24;99281.16;;;11.38;100.00
50734;BME280;36701;51.798;19.474;2022-09-03T02:53:51;99317.41;;;11.69;100.00
50734;BME280;36701;51.798;19.474;2022-09-03T02:56:17;99286.72;;;11.53;100.00
50734;BME280;36701;51.798;19.474;2022-09-03T02:58:44;99205.38;;;10.95;100.00
50734;BME280;36701;51.798;19.474;2022-09-03T03:01:10;99280.16;;;11.44;100.00
50734;BME280;36701;51.798;19.474;2022-09-03T03:03:36;99309.44;;;11.57;100.00
50734;BME280;36701;51.798;19.474;2022-09-03T03:06:04;99317.78;;;11.56;100.00
50734;BME280;36701;51.798;19.474;2022-09-03T03:08:31;99316.28;;;11.65;100.00
50734;BME280;36701;51.798;19.474;2022-09-03T03:11:00;99251.72;;;11.14;100.00
50734;BME280;36701;51.798;19.474;2022-09-03T03:13:28;99314.78;;;11.52;100.00
50734;BME280;36701;51.798;19.474;2022-09-03T03:16:00;99310.56;;;11.61;100.00
50734;BME280;36701;51.798;19.474;2022-09-03T03:18:27;99304.56;;;11.76;100.00
50734;BME280;36701;51.798;19.474;2022-09-03T03:20:53;99310.91;;;11.65;100.00
50734;BME280;36701;51.798;19.474;2022-09-03T03:23:20;99300.28;;;11.36;100.00
50734;BME280;36701;51.798;19.474;2022-09-03T03:25:46;99315.34;;;11.54;100.00
50734;BME280;36701;51.798;19.474;2022-09-03T03:28:13;99304.91;;;11.41;100.00
50734;BME280;36701;51.798;19.474;2022-09-03T03:30:40;99267.50;;;11.27;100.00
50734;BME280;36701;51.798;19.474;2022-09-03T03:33:08;99278.69;;;11.36;100.00
50734;BME280;36701;51.798;19.474;2022-09-03T03:35:35;99289.38;;;11.48;100.00
50734;BME280;36701;51.798;19.474;2022-09-03T03:38:02;99235.97;;;11.06;100.00
50734;BME280;36701;51.798;19.474;2022-09-03T03:40:30;99315.84;;;11.51;100.00
50734;BME280;36701;51.798;19.474;2022-09-03T03:42:57;99291.22;;;11.25;100.00
50734;BME280;36701;51.798;19.474;2022-09-03T03:45:23;99324.47;;;11.53;100.00
50734;BME280;36701;51.798;19.474;2022-09-03T03:47:50;99309.16;;;11.37;100.00
50734;BME280;36701;51.798;19.474;2022-09-03T03:50:16;99321.66;;;11.43;100.00
50734;BME280;36701;51.798;19.474;2022-09-03T03:52:42;99327.59;;;11.45;100.00
50734;BME280;36701;51.798;19.474;2022-09-03T03:55:09;99290.72;;;11.29;100.00
50734;BME280;36701;51.798;19.474;2022-09-03T03:57:35;99326.94;;;11.55;100.00
50734;BME280;36701;51.798;19.474;2022-09-03T04:00:03;99292.37;;;11.30;100.00
50734;BME280;36701;51.798;19.474;2022-09-03T04:02:40;99258.56;;;11.22;100.00
50734;BME280;36701;51.798;19.474;2022-09-03T04:05:13;99333.84;;;11.45;100.00
50734;BME280;36701;51.798;19.474;2022-09-03T04:07:40;99326.50;;;11.41;100.00
50734;BME280;36701;51.798;19.474;2022-09-03T04:10:07;99298.56;;;11.13;100.00
50734;BME280;36701;51.798;19.474;2022-09-03T04:12:34;99294.97;;;11.24;100.00
50734;BME280;36701;51.798;19.474;2022-09-03T04:15:01;99299.31;;;11.25;100.00
50734;BME280;36701;51.798;19.474;2022-09-03T04:17:27;99323.37;;;11.49;100.00
50734;BME280;36701;51.798;19.474;2022-09-03T04:19:54;99302.13;;;11.36;100.00
50734;BME280;36701;51.798;19.474;2022-09-03T04:22:20;99341.81;;;11.57;100.00
50734;BME280;36701;51.798;19.474;2022-09-03T04:24:46;99277.44;;;11.22;100.00
50734;BME280;36701;51.798;19.474;2022-09-03T04:27:13;99342.12;;;11.61;100.00
50734;BME280;36701;51.798;19.474;2022-09-03T04:29:39;99319.94;;;11.54;100.00
50734;BME280;36701;51.798;19.474;2022-09-03T04:32:12;99335.06;;;11.77;100.00
50734;BME280;36701;51.798;19.474;2022-09-03T04:34:57;99306.81;;;11.62;100.00
50734;BME280;36701;51.798;19.474;2022-09-03T04:37:24;99332.28;;;11.72;100.00
50734;BME280;36701;51.798;19.474;2022-09-03T04:39:50;99294.97;;;11.63;100.00
50734;BME280;36701;51.798;19.474;2022-09-03T04:42:17;99266.34;;;11.40;100.00
50734;BME280;36701;51.798;19.474;2022-09-03T04:44:44;99332.41;;;11.99;100.00
50734;BME280;36701;51.798;19.474;2022-09-03T04:47:10;99332.16;;;12.01;100.00
50734;BME280;36701;51.798;19.474;2022-09-03T04:49:36;99338.94;;;12.03;100.00
50734;BME280;36701;51.798;19.474;2022-09-03T04:52:05;99330.59;;;12.05;100.00
50734;BME280;36701;51.798;19.474;2022-09-03T04:54:31;99300.00;;;11.99;100.00
50734;BME280;36701;51.798;19.474;2022-09-03T04:56:58;99303.78;;;11.98;100.00
50734;BME280;36701;51.798;19.474;2022-09-03T04:59:24;99336.72;;;12.22;100.00
50734;BME280;36701;51.798;19.474;2022-09-03T05:01:50;99328.53;;;12.17;100.00
50734;BME280;36701;51.798;19.474;2022-09-03T05:04:18;99343.22;;;12.26;100.00
50734;BME280;36701;51.798;19.474;2022-09-03T05:06:45;99347.00;;;12.25;100.00
50734;BME280;36701;51.798;19.474;2022-09-03T05:09:11;99342.38;;;12.21;100.00
50734;BME280;36701;51.798;19.474;2022-09-03T05:11:38;99302.16;;;11.97;100.00
50734;BME280;36701;51.798;19.474;2022-09-03T05:14:04;99299.31;;;12.09;100.00
50734;BME280;36701;51.798;19.474;2022-09-03T05:16:31;99349.38;;;12.44;100.00
50734;BME280;36701;51.798;19.474;2022-09-03T05:18:58;99240.13;;;11.80;100.00
50734;BME280;36701;51.798;19.474;2022-09-03T05:21:26;99308.59;;;12.45;100.00
50734;BME280;36701;51.798;19.474;2022-09-03T05:23:53;99354.25;;;12.74;100.00
50734;BME280;36701;51.798;19.474;2022-09-03T05:26:23;99304.00;;;12.46;100.00
50734;BME280;36701;51.798;19.474;2022-09-03T05:28:58;99306.34;;;12.64;100.00
50734;BME280;36701;51.798;19.474;2022-09-03T05:31:27;99316.22;;;12.81;100.00
50734;BME280;36701;51.798;19.474;2022-09-03T05:33:56;99332.56;;;12.96;100.00
50734;BME280;36701;51.798;19.474;2022-09-03T05:36:29;99357.53;;;13.08;100.00
50734;BME280;36701;51.798;19.474;2022-09-03T05:38:58;99360.81;;;13.16;100.00
50734;BME280;36701;51.798;19.474;2022-09-03T05:41:25;99313.25;;;12.82;100.00
50734;BME280;36701;51.798;19.474;2022-09-03T05:43:52;99325.97;;;12.82;100.00
50734;BME280;36701;51.798;19.474;2022-09-03T05:46:26;99366.75;;;13.13;100.00
50734;BME280;36701;51.798;19.474;2022-09-03T05:48:59;99351.63;;;13.12;100.00
50734;BME280;36701;51.798;19.474;2022-09-03T05:51:27;99358.84;;;13.38;100.00
50734;BME280;36701;51.798;19.474;2022-09-03T05:53:54;99273.38;;;12.62;100.00
50734;BME280;36701;51.798;19.474;2022-09-03T05:56:22;99320.06;;;12.90;100.00
50734;BME280;36701;51.798;19.474;2022-09-03T05:58:51;99361.53;;;13.33;100.00
50734;BME280;36701;51.798;19.474;2022-09-03T06:01:20;99278.41;;;12.86;100.00
50734;BME280;36701;51.798;19.474;2022-09-03T06:03:52;99363.22;;;13.44;100.00
50734;BME280;36701;51.798;19.474;2022-09-03T06:06:20;99353.06;;;13.62;100.00
50734;BME280;36701;51.798;19.474;2022-09-03T06:08:54;99357.41;;;13.63;100.00
50734;BME280;36701;51.798;19.474;2022-09-03T06:11:21;99363.44;;;13.75;100.00
50734;BME280;36701;51.798;19.474;2022-09-03T06:13:51;99224.84;;;12.78;100.00
50734;BME280;36701;51.798;19.474;2022-09-03T06:16:18;99334.03;;;13.47;100.00
50734;BME280;36701;51.798;19.474;2022-09-03T06:18:45;99340.03;;;13.54;100.00
50734;BME280;36701;51.798;19.474;2022-09-03T06:21:11;99377.78;;;13.81;100.00
50734;BME280;36701;51.798;19.474;2022-09-03T06:23:40;99372.09;;;13.77;100.00
50734;BME280;36701;51.798;19.474;2022-09-03T06:26:12;99370.63;;;14.07;100.00
50734;BME280;36701;51.798;19.474;2022-09-03T06:28:41;99330.03;;;14.12;100.00
50734;BME280;36701;51.798;19.474;2022-09-03T06:31:14;99289.34;;;13.97;100.00
50734;BME280;36701;51.798;19.474;2022-09-03T06:33:41;99355.28;;;14.39;100.00
50734;BME280;36701;51.798;19.474;2022-09-03T06:36:11;99337.63;;;14.26;100.00
50734;BME280;36701;51.798;19.474;2022-09-03T06:38:42;99374.00;;;14.50;100.00
50734;BME280;36701;51.798;19.474;2022-09-03T06:41:17;99304.00;;;14.11;100.00
50734;BME280;36701;51.798;19.474;2022-09-03T06:43:58;99362.16;;;14.72;100.00
50734;BME280;36701;51.798;19.474;2022-09-03T06:46:28;99363.25;;;14.81;100.00
50734;BME280;36701;51.798;19.474;2022-09-03T06:48:55;99377.34;;;14.68;100.00
50734;BME280;36701;51.798;19.474;2022-09-03T06:51:26;99363.78;;;14.68;100.00
50734;BME280;36701;51.798;19.474;2022-09-03T06:53:57;99309.00;;;14.50;100.00
50734;BME280;36701;51.798;19.474;2022-09-03T06:56:25;99340.47;;;14.77;100.00
50734;BME280;36701;51.798;19.474;2022-09-03T06:58:53;99378.16;;;14.94;100.00
50734;BME280;36701;51.798;19.474;2022-09-03T07:01:22;99345.66;;;14.84;100.00
50734;BME280;36701;51.798;19.474;2022-09-03T07:03:53;99355.13;;;15.12;100.00
50734;BME280;36701;51.798;19.474;2022-09-03T07:07:47;99363.44;;;16.53;100.00
50734;BME280;36701;51.798;19.474;2022-09-03T07:10:14;99363.44;;;16.53;100.00
50734;BME280;36701;51.798;19.474;2022-09-03T07:12:45;99362.53;;;16.13;100.00
50734;BME280;36701;51.798;19.474;2022-09-03T07:15:11;99352.13;;;16.36;100.00
50734;BME280;36701;51.798;19.474;2022-09-03T07:17:39;99351.59;;;16.28;99.77
50734;BME280;36701;51.798;19.474;2022-09-03T07:20:06;99369.16;;;16.51;100.00
50734;BME280;36701;51.798;19.474;2022-09-03T07:22:32;99319.53;;;16.25;100.00
50734;BME280;36701;51.798;19.474;2022-09-03T07:24:59;99343.69;;;16.37;100.00
50734;BME280;36701;51.798;19.474;2022-09-03T07:27:25;99362.34;;;16.49;100.00
50734;BME280;36701;51.798;19.474;2022-09-03T07:29:51;99349.56;;;16.55;100.00
50734;BME280;36701;51.798;19.474;2022-09-03T07:32:18;99377.47;;;16.70;97.11
50734;BME280;36701;51.798;19.474;2022-09-03T07:34:44;99334.28;;;16.59;96.35
50734;BME280;36701;51.798;19.474;2022-09-03T07:37:10;99336.16;;;16.63;97.27
50734;BME280;36701;51.798;19.474;2022-09-03T07:39:37;99377.88;;;16.93;98.04
50734;BME280;36701;51.798;19.474;2022-09-03T07:42:03;99362.66;;;16.92;97.65
50734;BME280;36701;51.798;19.474;2022-09-03T07:44:30;99349.28;;;16.96;95.57
50734;BME280;36701;51.798;19.474;2022-09-03T07:46:57;99308.34;;;16.77;99.59
50734;BME280;36701;51.798;19.474;2022-09-03T07:49:23;99367.31;;;17.21;89.69
50734;BME280;36701;51.798;19.474;2022-09-03T07:51:49;99348.16;;;17.02;82.65
50734;BME280;36701;51.798;19.474;2022-09-03T07:54:18;99371.84;;;17.31;83.93
50734;BME280;36701;51.798;19.474;2022-09-03T07:56:46;99345.66;;;17.11;78.35
50734;BME280;36701;51.798;19.474;2022-09-03T07:59:13;99355.63;;;17.20;85.02
50734;BME280;36701;51.798;19.474;2022-09-03T08:01:39;99379.66;;;17.42;82.89
50734;BME280;36701;51.798;19.474;2022-09-03T08:04:06;99374.91;;;17.53;83.51
50734;BME280;36701;51.798;19.474;2022-09-03T08:06:33;99354.03;;;17.43;81.48
50734;BME280;36701;51.798;19.474;2022-09-03T08:09:03;99383.13;;;17.48;75.69
50734;BME280;36701;51.798;19.474;2022-09-03T08:11:30;99352.50;;;17.32;77.42
50734;BME280;36701;51.798;19.474;2022-09-03T08:13:58;99377.38;;;17.50;75.97
50734;BME280;36701;51.798;19.474;2022-09-03T08:16:32;99388.84;;;17.76;74.12
50734;BME280;36701;51.798;19.474;2022-09-03T08:18:59;99358.69;;;17.67;66.32
50734;BME280;36701;51.798;19.474;2022-09-03T08:21:26;99382.38;;;17.96;62.96
50734;BME280;36701;51.798;19.474;2022-09-03T08:23:54;99385.53;;;18.08;66.64
50734;BME280;36701;51.798;19.474;2022-09-03T08:26:33;99392.06;;;18.07;65.25
50734;BME280;36701;51.798;19.474;2022-09-03T08:29:00;99359.03;;;17.90;66.54
50734;BME280;36701;51.798;19.474;2022-09-03T08:31:27;99360.78;;;17.75;62.33
50734;BME280;36701;51.798;19.474;2022-09-03T08:33:56;99393.38;;;17.86;62.30
50734;BME280;36701;51.798;19.474;2022-09-03T08:36:24;99385.34;;;17.70;65.67
50734;BME280;36701;51.798;19.474;2022-09-03T08:38:52;99388.19;;;18.13;69.09
50734;BME280;36701;51.798;19.474;2022-09-03T08:44:21;99366.13;;;17.86;60.75
50734;BME280;36701;51.798;19.474;2022-09-03T08:49:26;99389.25;;;18.12;61.70
50734;BME280;36701;51.798;19.474;2022-09-03T08:51:55;99382.38;;;17.96;61.11
50734;BME280;36701;51.798;19.474;2022-09-03T08:54:25;99349.12;;;17.99;60.82
50734;BME280;36701;51.798;19.474;2022-09-03T08:56:59;99379.09;;;18.42;61.48
50734;BME280;36701;51.798;19.474;2022-09-03T08:59:28;99371.06;;;18.51;57.47
50734;BME280;36701;51.798;19.474;2022-09-03T09:09:45;99348.31;;;18.61;58.81
50734;BME280;36701;51.798;19.474;2022-09-03T09:15:11;99385.75;;;18.74;56.33
50734;BME280;36701;51.798;19.474;2022-09-03T09:20:41;99378.66;;;19.11;57.51
50734;BME280;36701;51.798;19.474;2022-09-03T09:23:17;99375.78;;;18.83;52.40
50734;BME280;36701;51.798;19.474;2022-09-03T09:25:47;99374.72;;;18.84;49.67
50734;BME280;36701;51.798;19.474;2022-09-03T09:28:22;99374.94;;;18.88;49.67
50734;BME280;36701;51.798;19.474;2022-09-03T09:30:56;99304.94;;;18.78;51.70
50734;BME280;36701;51.798;19.474;2022-09-03T09:33:23;99369.53;;;19.02;51.22
50734;BME280;36701;51.798;19.474;2022-09-03T09:35:50;99361.94;;;18.99;50.24
50734;BME280;36701;51.798;19.474;2022-09-03T09:38:28;99368.06;;;18.91;51.63
50734;BME280;36701;51.798;19.474;2022-09-03T09:40:55;99351.09;;;18.94;51.34
50734;BME280;36701;51.798;19.474;2022-09-03T09:43:23;99332.00;;;18.75;55.88
50734;BME280;36701;51.798;19.474;2022-09-03T09:45:51;99351.69;;;19.23;53.20
50734;BME280;36701;51.798;19.474;2022-09-03T09:48:25;99359.13;;;19.04;51.36
50734;BME280;36701;51.798;19.474;2022-09-03T09:51:09;99328.25;;;18.90;50.41
50734;BME280;36701;51.798;19.474;2022-09-03T09:53:37;99362.16;;;19.35;50.75
50734;BME280;36701;51.798;19.474;2022-09-03T09:56:05;99332.34;;;19.53;53.95
50734;BME280;36701;51.798;19.474;2022-09-03T09:58:33;99359.72;;;19.94;51.46
50734;BME280;36701;51.798;19.474;2022-09-03T10:01:11;99357.91;;;19.43;49.70
50734;BME280;36701;51.798;19.474;2022-09-03T10:03:51;99361.78;;;19.70;53.77
50734;BME280;36701;51.798;19.474;2022-09-03T10:06:25;99338.09;;;19.51;52.76
50734;BME280;36701;51.798;19.474;2022-09-03T10:09:14;99360.34;;;19.91;51.45
50734;BME280;36701;51.798;19.474;2022-09-03T10:14:50;99357.78;;;19.95;54.59
50734;BME280;36701;51.798;19.474;2022-09-03T10:17:25;99303.31;;;19.57;52.93
50734;BME280;36701;51.798;19.474;2022-09-03T10:20:08;99325.75;;;19.40;52.22
50734;BME280;36701;51.798;19.474;2022-09-03T10:23:17;99353.28;;;19.57;51.71
50734;BME280;36701;51.798;19.474;2022-09-03T10:28:34;99321.34;;;20.00;50.86
50734;BME280;36701;51.798;19.474;2022-09-03T10:31:16;99270.78;;;19.88;50.25
50734;BME280;36701;51.798;19.474;2022-09-03T10:36:33;99335.09;;;20.22;49.57
50734;BME280;36701;51.798;19.474;2022-09-03T10:39:05;99337.41;;;20.15;49.16
50734;BME280;36701;51.798;19.474;2022-09-03T10:50:23;99333.91;;;19.87;48.63
50734;BME280;36701;51.798;19.474;2022-09-03T11:06:54;99330.19;;;21.37;45.77
50734;BME280;36701;51.798;19.474;2022-09-03T11:12:00;99317.41;;;21.95;44.52
50734;BME280;36701;51.798;19.474;2022-09-03T11:14:56;99316.59;;;21.95;46.18
50734;BME280;36701;51.798;19.474;2022-09-03T11:17:34;99316.88;;;21.22;45.17
50734;BME280;36701;51.798;19.474;2022-09-03T11:20:17;99312.28;;;21.31;44.42
50734;BME280;36701;51.798;19.474;2022-09-03T11:22:45;99285.00;;;20.95;41.27
50734;BME280;36701;51.798;19.474;2022-09-03T11:25:14;99310.47;;;21.49;42.99
50734;BME280;36701;51.798;19.474;2022-09-03T11:27:54;99289.22;;;21.55;43.70
50734;BME280;36701;51.798;19.474;2022-09-03T11:30:37;99316.19;;;21.70;43.59
50734;BME280;36701;51.798;19.474;2022-09-03T11:33:09;99263.75;;;21.23;45.27
50734;BME280;36701;51.798;19.474;2022-09-03T11:35:41;99288.47;;;21.40;43.92
50734;BME280;36701;51.798;19.474;2022-09-03T11:41:10;99300.03;;;22.88;45.12
50734;BME280;36701;51.798;19.474;2022-09-03T11:43:37;99294.22;;;22.28;43.82
50734;BME280;36701;51.798;19.474;2022-09-03T11:46:10;99261.56;;;21.42;41.76
50734;BME280;36701;51.798;19.474;2022-09-03T11:48:41;99297.91;;;22.14;42.50
50734;BME280;36701;51.798;19.474;2022-09-03T11:51:33;99304.78;;;21.46;43.49
50734;BME280;36701;51.798;19.474;2022-09-03T11:54:05;99248.16;;;20.92;43.09
50734;BME280;36701;51.798;19.474;2022-09-03T11:56:33;99298.06;;;21.52;43.46
50734;BME280;36701;51.798;19.474;2022-09-03T12:04:14;99265.56;;;21.59;45.29
50734;BME280;36701;51.798;19.474;2022-09-03T12:06:57;99224.53;;;22.03;44.19
50734;BME280;36701;51.798;19.474;2022-09-03T12:21:08;99273.22;;;21.17;43.94
50734;BME280;36701;51.798;19.474;2022-09-03T12:23:38;99245.50;;;21.10;45.45
50734;BME280;36701;51.798;19.474;2022-09-03T12:26:08;99274.88;;;20.95;43.97
50734;BME280;36701;51.798;19.474;2022-09-03T12:28:42;99214.19;;;20.25;45.06
50734;BME280;36701;51.798;19.474;2022-09-03T12:33:47;99243.19;;;20.72;45.31
50734;BME280;36701;51.798;19.474;2022-09-03T12:36:14;99270.22;;;21.27;45.51
50734;BME280;36701;51.798;19.474;2022-09-03T12:38:41;99239.31;;;20.95;43.93
50734;BME280;36701;51.798;19.474;2022-09-03T12:41:19;99238.34;;;21.31;44.73
50734;BME280;36701;51.798;19.474;2022-09-03T12:43:57;99262.34;;;21.74;44.09
50734;BME280;36701;51.798;19.474;2022-09-03T12:46:29;99256.72;;;21.71;42.90
50734;BME280;36701;51.798;19.474;2022-09-03T12:51:31;99255.28;;;21.73;44.24
50734;BME280;36701;51.798;19.474;2022-09-03T12:53:58;99262.06;;;21.85;43.05
50734;BME280;36701;51.798;19.474;2022-09-03T12:56:25;99251.34;;;21.57;43.04
50734;BME280;36701;51.798;19.474;2022-09-03T12:58:58;99254.25;;;22.36;41.79
50734;BME280;36701;51.798;19.474;2022-09-03T13:01:33;99248.91;;;22.57;41.17
50734;BME280;36701;51.798;19.474;2022-09-03T13:09:12;99159.50;;;21.51;42.83
50734;BME280;36701;51.798;19.474;2022-09-03T13:11:39;99254.03;;;22.14;42.27
50734;BME280;36701;51.798;19.474;2022-09-03T13:14:10;99221.16;;;21.97;43.03
50734;BME280;36701;51.798;19.474;2022-09-03T13:30:20;99241.44;;;20.76;44.61
50734;BME280;36701;51.798;19.474;2022-09-03T13:35:46;99245.16;;;20.80;44.50
50734;BME280;36701;51.798;19.474;2022-09-03T13:40:59;99240.16;;;20.59;43.50
50734;BME280;36701;51.798;19.474;2022-09-03T13:43:42;99237.25;;;20.33;43.70
50734;BME280;36701;51.798;19.474;2022-09-03T13:46:32;99180.50;;;20.16;44.22
50734;BME280;36701;51.798;19.474;2022-09-03T13:49:38;99242.75;;;20.78;44.91
50734;BME280;36701;51.798;19.474;2022-09-03T13:52:37;99242.91;;;20.82;45.45
50734;BME280;36701;51.798;19.474;2022-09-03T13:55:13;99200.84;;;20.69;46.81
50734;BME280;36701;51.798;19.474;2022-09-03T13:57:50;99210.13;;;20.23;46.16
50734;BME280;36701;51.798;19.474;2022-09-03T14:03:37;99234.72;;;20.82;47.40
50734;BME280;36701;51.798;19.474;2022-09-03T14:06:18;99232.28;;;21.12;49.68
50734;BME280;36701;51.798;19.474;2022-09-03T14:09:19;99232.69;;;20.65;47.48
50734;BME280;36701;51.798;19.474;2022-09-03T14:14:55;99205.94;;;20.93;47.74
50734;BME280;36701;51.798;19.474;2022-09-03T14:17:56;99204.03;;;20.94;47.33
50734;BME280;36701;51.798;19.474;2022-09-03T14:20:30;99229.63;;;21.29;48.06
50734;BME280;36701;51.798;19.474;2022-09-03T14:23:05;99205.78;;;21.21;47.14
50734;BME280;36701;51.798;19.474;2022-09-03T14:25:33;99236.38;;;21.63;46.58
50734;BME280;36701;51.798;19.474;2022-09-03T14:28:14;99192.50;;;21.05;47.57
50734;BME280;36701;51.798;19.474;2022-09-03T14:30:48;99206.72;;;20.62;46.77
50734;BME280;36701;51.798;19.474;2022-09-03T14:33:27;99234.75;;;21.53;46.63
50734;BME280;36701;51.798;19.474;2022-09-03T14:36:22;99233.16;;;21.21;47.68
50734;BME280;36701;51.798;19.474;2022-09-03T14:39:25;99209.63;;;21.20;47.56
50734;BME280;36701;51.798;19.474;2022-09-03T14:47:17;99229.28;;;21.22;49.74
50734;BME280;36701;51.798;19.474;2022-09-03T14:49:51;99157.59;;;21.20;49.35
50734;BME280;36701;51.798;19.474;2022-09-03T15:04:12;99218.31;;;21.22;48.17
50734;BME280;36701;51.798;19.474;2022-09-03T15:07:15;99232.53;;;21.24;47.16
50734;BME280;36701;51.798;19.474;2022-09-03T15:10:14;99226.47;;;21.45;46.97
50734;BME280;36701;51.798;19.474;2022-09-03T15:12:52;99214.38;;;21.05;47.79
50734;BME280;36701;51.798;19.474;2022-09-03T15:15:24;99219.78;;;20.88;49.86
50734;BME280;36701;51.798;19.474;2022-09-03T15:20:31;99236.44;;;21.40;49.30
50734;BME280;36701;51.798;19.474;2022-09-03T15:23:12;99220.44;;;21.65;50.75
50734;BME280;36701;51.798;19.474;2022-09-03T15:31:03;99219.44;;;20.81;48.08
50734;BME280;36701;51.798;19.474;2022-09-03T15:33:41;99196.09;;;20.83;48.97
50734;BME280;36701;51.798;19.474;2022-09-03T15:36:22;99225.41;;;21.23;49.55
50734;BME280;36701;51.798;19.474;2022-09-03T15:38:56;99223.31;;;21.60;46.70
50734;BME280;36701;51.798;19.474;2022-09-03T15:44:11;99228.78;;;21.60;47.28
50734;BME280;36701;51.798;19.474;2022-09-03T15:50:30;99224.63;;;21.22;49.73
50734;BME280;36701;51.798;19.474;2022-09-03T15:53:08;99190.94;;;20.82;47.04
50734;BME280;36701;51.798;19.474;2022-09-03T15:55:40;99217.34;;;21.18;48.08
50734;BME280;36701;51.798;19.474;2022-09-03T15:58:25;99224.41;;;21.50;47.36
50734;BME280;36701;51.798;19.474;2022-09-03T16:00:57;99197.56;;;21.79;48.10
50734;BME280;36701;51.798;19.474;2022-09-03T16:06:29;99228.19;;;22.85;45.19
50734;BME280;36701;51.798;19.474;2022-09-03T16:09:08;99218.13;;;23.07;43.52
50734;BME280;36701;51.798;19.474;2022-09-03T16:11:55;99201.31;;;22.44;45.10
50734;BME280;36701;51.798;19.474;2022-09-03T16:16:58;99233.91;;;22.45;44.64
50734;BME280;36701;51.798;19.474;2022-09-03T16:22:21;99231.44;;;22.00;46.14
50734;BME280;36701;51.798;19.474;2022-09-03T16:25:09;99236.56;;;21.75;48.81